createdAt,value
2023-04-20T00:00:47.700Z,5.03
2023-04-20T00:03:18.421Z,5.60
2023-04-20T00:05:49.614Z,6.45
2023-04-20T00:08:18.566Z,5.30
2023-04-20T00:10:47.022Z,6.68
2023-04-20T00:13:15.516Z,5.03
2023-04-20T00:15:43.953Z,6.10
2023-04-20T00:18:12.376Z,4.82
2023-04-20T00:20:40.827Z,8.30
2023-04-20T00:23:10.832Z,5.03
2023-04-20T00:25:39.294Z,7.95
2023-04-20T00:28:07.738Z,7.20
2023-04-20T00:30:36.241Z,6.43
2023-04-20T00:33:04.796Z,4.35
2023-04-20T00:35:33.420Z,6.18
2023-04-20T00:38:01.823Z,3.90
2023-04-20T00:40:31.700Z,6.50
2023-04-20T00:43:00.124Z,4.20
2023-04-20T00:45:28.542Z,7.43
2023-04-20T00:47:57.032Z,5.72
2023-04-20T00:50:25.650Z,4.97
2023-04-20T00:52:54.071Z,5.20
2023-04-20T00:55:22.819Z,3.85
2023-04-20T00:57:52.722Z,3.58
2023-04-20T01:00:21.433Z,8.00
2023-04-20T01:02:49.980Z,5.70
2023-04-20T01:05:18.614Z,5.57
2023-04-20T01:07:47.092Z,4.25
2023-04-20T01:10:15.515Z,7.07
2023-04-20T01:12:43.998Z,4.93
2023-04-20T01:15:13.988Z,4.63
2023-04-20T01:17:43.888Z,5.10
2023-04-20T01:20:13.291Z,5.15
2023-04-20T01:22:46.849Z,6.05
2023-04-20T01:25:15.351Z,8.55
2023-04-20T01:27:43.799Z,6.05
2023-04-20T01:30:12.729Z,6.82
2023-04-20T01:32:41.405Z,4.70
2023-04-20T01:35:10.861Z,4.03
2023-04-20T01:37:39.597Z,6.68
2023-04-20T01:40:11.096Z,4.25
2023-04-20T01:42:39.792Z,4.93
2023-04-20T01:45:08.857Z,4.75
2023-04-20T01:47:37.369Z,4.57
2023-04-20T01:50:06.055Z,5.50
2023-04-20T01:52:34.534Z,5.90
2023-04-20T01:55:03.003Z,5.90
2023-04-20T01:57:33.000Z,3.92
2023-04-20T02:00:01.465Z,4.40
2023-04-20T02:02:30.123Z,4.40
2023-04-20T02:04:58.945Z,5.32
2023-04-20T02:07:27.426Z,4.80
2023-04-20T02:09:55.892Z,5.07
2023-04-20T02:12:24.445Z,5.20
2023-04-20T02:14:54.319Z,7.35
2023-04-20T02:17:22.907Z,4.47
2023-04-20T02:19:51.414Z,3.92
2023-04-20T02:22:22.303Z,3.97
2023-04-20T02:24:50.743Z,4.38
2023-04-20T02:27:19.224Z,3.40
2023-04-20T02:29:47.659Z,4.85
2023-04-20T02:32:17.545Z,4.40
2023-04-20T02:34:46.269Z,4.47
2023-04-20T02:37:14.884Z,2.70
2023-04-20T02:39:43.337Z,7.10
2023-04-20T02:42:11.956Z,5.45
2023-04-20T02:44:40.464Z,4.95
2023-04-20T02:47:08.946Z,4.38
2023-04-20T02:49:39.047Z,5.65
2023-04-20T02:52:07.539Z,5.78
2023-04-20T02:54:35.949Z,6.72
2023-04-20T02:57:04.603Z,3.58
2023-04-20T02:59:33.048Z,4.47
2023-04-20T03:02:01.632Z,8.13
2023-04-20T03:04:31.083Z,3.28
2023-04-20T03:07:01.552Z,5.82
2023-04-20T03:09:30.003Z,3.60
2023-04-20T03:11:58.532Z,5.25
2023-04-20T03:14:26.960Z,5.40
2023-04-20T03:16:55.568Z,3.40
2023-04-20T03:19:24.020Z,4.10
2023-04-20T03:21:52.484Z,6.90
2023-04-20T03:24:22.348Z,4.90
2023-04-20T03:26:50.842Z,8.23
2023-04-20T03:29:19.474Z,4.97
2023-04-20T03:31:48.127Z,5.88
2023-04-20T03:34:16.887Z,5.20
2023-04-20T03:36:45.323Z,5.18
2023-04-20T03:39:13.716Z,3.58
2023-04-20T03:41:43.531Z,5.40
2023-04-20T03:44:12.034Z,4.57
2023-04-20T03:46:41.095Z,7.70
2023-04-20T03:51:36.666Z,6.38
2023-04-20T03:54:05.972Z,7.90
2023-04-20T03:56:34.775Z,5.00
2023-04-20T03:59:03.239Z,4.18
2023-04-20T04:01:31.925Z,4.18
2023-04-20T04:04:00.851Z,5.40
2023-04-20T04:06:29.443Z,4.72
2023-04-20T04:08:59.337Z,5.50
2023-04-20T04:11:30.085Z,5.30
2023-04-20T04:13:59.611Z,4.05
2023-04-20T04:16:28.209Z,5.57
2023-04-20T04:18:56.692Z,5.68
2023-04-20T04:21:25.170Z,10.60
2023-04-20T04:23:53.626Z,6.03
2023-04-20T04:26:24.833Z,6.00
2023-04-20T04:28:53.529Z,7.80
2023-04-20T04:31:22.018Z,5.53
2023-04-20T04:33:50.463Z,6.53
2023-04-20T04:36:19.056Z,3.97
2023-04-20T04:38:48.052Z,6.32
2023-04-20T04:41:16.968Z,6.00
2023-04-20T04:43:47.573Z,6.22
2023-04-20T04:46:16.075Z,8.18
2023-04-20T04:48:46.562Z,5.68
2023-04-20T04:51:15.032Z,6.35
2023-04-20T04:53:45.171Z,6.72
2023-04-20T04:56:14.371Z,6.40
2023-04-20T04:58:42.930Z,8.85
2023-04-20T05:01:12.842Z,5.50
2023-04-20T05:03:41.473Z,6.18
2023-04-20T05:06:10.201Z,5.70
2023-04-20T05:08:38.790Z,5.50
2023-04-20T05:11:07.497Z,5.20
2023-04-20T05:13:35.952Z,11.68
2023-04-20T05:16:04.532Z,6.00
2023-04-20T05:18:34.445Z,4.30
2023-04-20T05:21:02.937Z,6.75
2023-04-20T05:23:31.465Z,7.47
2023-04-20T05:26:00.155Z,6.55
2023-04-20T05:28:28.616Z,6.78
2023-04-20T05:30:57.198Z,5.68
2023-04-20T05:33:25.672Z,7.72
2023-04-20T05:35:59.070Z,6.28
2023-04-20T05:38:27.547Z,6.35
2023-04-20T05:40:56.081Z,5.13
2023-04-20T05:43:24.998Z,7.55
2023-04-20T05:45:53.489Z,6.00
2023-04-20T05:48:21.957Z,5.53
2023-04-20T05:50:50.439Z,4.90
2023-04-20T05:53:20.234Z,5.63
2023-04-20T05:55:48.872Z,5.57
2023-04-20T05:58:17.412Z,6.00
2023-04-20T06:00:46.177Z,6.47
2023-04-20T06:03:14.843Z,5.18
2023-04-20T06:05:43.554Z,5.18
2023-04-20T06:08:12.055Z,7.70
2023-04-20T06:10:42.000Z,6.40
2023-04-20T06:13:10.500Z,7.35
2023-04-20T06:15:39.100Z,6.72
2023-04-20T06:18:07.695Z,5.88
2023-04-20T06:20:36.268Z,7.30
2023-04-20T06:23:04.752Z,6.22
2023-04-20T06:25:33.205Z,8.98
2023-04-20T06:28:03.060Z,6.00
2023-04-20T06:30:32.982Z,5.68
2023-04-20T06:33:01.562Z,7.47
2023-04-20T06:35:30.100Z,8.40
2023-04-20T06:37:58.561Z,8.45
2023-04-20T06:40:28.562Z,5.80
2023-04-20T06:42:57.023Z,6.97
2023-04-20T06:45:27.053Z,7.28
2023-04-20T06:47:55.575Z,7.25
2023-04-20T06:50:24.164Z,8.90
2023-04-20T06:52:52.647Z,6.75
2023-04-20T06:55:21.111Z,9.23
2023-04-20T06:57:49.557Z,6.13
2023-04-20T07:00:18.648Z,7.95
2023-04-20T07:02:49.127Z,8.70
2023-04-20T07:05:18.174Z,8.57
2023-04-20T07:07:46.917Z,7.65
2023-04-20T07:10:16.282Z,7.28
2023-04-20T07:12:45.265Z,7.07
2023-04-20T07:15:13.769Z,8.98
2023-04-20T07:17:42.292Z,7.97
2023-04-20T07:20:12.547Z,8.25
2023-04-20T07:22:41.296Z,8.68
2023-04-20T07:25:10.581Z,8.07
2023-04-20T07:27:39.977Z,8.00
2023-04-20T07:30:09.341Z,10.80
2023-04-20T07:32:38.208Z,8.38
2023-04-20T07:35:07.154Z,8.02
2023-04-20T07:37:37.029Z,11.48
2023-04-20T07:40:06.840Z,10.15
2023-04-20T07:42:37.083Z,10.65
2023-04-20T07:45:06.545Z,15.23
2023-04-20T07:47:35.700Z,10.00
2023-04-20T07:50:04.293Z,13.13
2023-04-20T07:52:32.741Z,9.38
2023-04-20T07:55:02.613Z,8.68
2023-04-20T07:57:31.370Z,10.38
2023-04-20T07:59:59.813Z,10.07
2023-04-20T08:02:28.517Z,10.13
2023-04-20T08:04:57.368Z,12.13
2023-04-20T08:07:26.213Z,9.15
2023-04-20T08:09:54.769Z,10.35
2023-04-20T08:12:24.573Z,7.72
2023-04-20T08:14:53.038Z,9.00
2023-04-20T08:17:21.574Z,9.07
2023-04-20T08:19:50.072Z,8.48
2023-04-20T08:22:18.529Z,9.82
2023-04-20T08:24:47.404Z,8.93
2023-04-20T08:27:15.958Z,9.25
2023-04-20T08:29:46.045Z,9.00
2023-04-20T08:32:15.539Z,7.93
2023-04-20T08:34:46.370Z,7.70
2023-04-20T08:37:14.859Z,7.75
2023-04-20T08:39:43.466Z,7.82
2023-04-20T08:42:12.329Z,8.13
2023-04-20T08:44:40.874Z,7.35
2023-04-20T08:47:11.182Z,7.43
2023-04-20T08:49:40.619Z,6.97
2023-04-20T08:52:11.133Z,7.70
2023-04-20T08:54:45.828Z,8.45
2023-04-20T08:57:18.170Z,7.20
2023-04-20T08:59:46.621Z,9.15
2023-04-20T09:02:16.563Z,9.02
2023-04-20T09:04:48.941Z,6.97
2023-04-20T09:07:21.560Z,7.13
2023-04-20T09:09:56.689Z,8.25
2023-04-20T09:12:25.676Z,8.90
2023-04-20T09:14:54.390Z,11.35
2023-04-20T09:17:33.844Z,8.02
2023-04-20T09:20:02.375Z,8.75
2023-04-20T09:22:31.576Z,8.95
2023-04-20T09:25:00.058Z,7.22
2023-04-20T09:27:28.746Z,9.75
2023-04-20T09:30:01.179Z,9.40
2023-04-20T09:32:30.129Z,13.02
2023-04-20T09:35:00.191Z,9.88
2023-04-20T09:37:28.666Z,11.07
2023-04-20T09:39:59.886Z,12.45
2023-04-20T09:42:29.530Z,9.20
2023-04-20T09:44:59.309Z,10.15
2023-04-20T09:47:29.863Z,10.25
2023-04-20T09:50:10.201Z,12.43
2023-04-20T09:52:50.370Z,8.85
2023-04-20T09:55:18.914Z,8.25
2023-04-20T09:57:47.417Z,8.20
2023-04-20T10:00:16.448Z,11.98
2023-04-20T10:02:48.838Z,10.38
2023-04-20T10:05:18.970Z,11.50
2023-04-20T10:07:47.464Z,12.23
2023-04-20T10:10:16.996Z,12.60
2023-04-20T10:12:52.058Z,12.57
2023-04-20T10:15:21.848Z,13.68
2023-04-20T10:17:51.152Z,10.50
2023-04-20T10:20:21.781Z,11.00
2023-04-20T10:22:50.359Z,11.00
2023-04-20T10:25:20.509Z,13.40
2023-04-20T10:27:56.692Z,9.80
2023-04-20T10:30:25.532Z,9.10
2023-04-20T10:33:04.343Z,9.15
2023-04-20T10:35:45.818Z,8.32
2023-04-20T10:38:14.526Z,8.23
2023-04-20T10:40:43.044Z,7.60
2023-04-20T10:43:21.810Z,7.88
2023-04-20T10:45:50.698Z,6.95
2023-04-20T10:48:19.196Z,7.32
2023-04-20T10:50:49.067Z,6.82
2023-04-20T10:53:21.548Z,7.95
2023-04-20T10:55:59.444Z,5.95
2023-04-20T10:58:28.114Z,4.97
2023-04-20T11:01:00.058Z,4.70
2023-04-20T11:03:32.015Z,4.30
2023-04-20T11:06:04.014Z,5.05
2023-04-20T11:08:39.715Z,5.18
2023-04-20T11:11:10.260Z,5.20
2023-04-20T11:13:39.737Z,5.40
2023-04-20T11:16:12.011Z,5.63
2023-04-20T11:18:51.528Z,5.03
2023-04-20T11:21:22.116Z,4.45
2023-04-20T11:23:50.845Z,4.40
2023-04-20T11:26:19.426Z,4.05
2023-04-20T11:28:56.130Z,4.75
2023-04-20T11:31:26.814Z,5.75
2023-04-20T11:33:55.522Z,5.05
2023-04-20T11:36:26.503Z,5.55
2023-04-20T11:38:56.135Z,5.38
2023-04-20T11:41:27.822Z,5.15
2023-04-20T11:43:56.231Z,5.25
2023-04-20T11:46:24.874Z,4.65
2023-04-20T11:48:54.149Z,4.90
2023-04-20T11:51:22.629Z,4.30
2023-04-20T11:53:52.481Z,5.30
2023-04-20T11:56:21.171Z,4.43
2023-04-20T11:58:49.773Z,4.53
2023-04-20T12:01:18.676Z,5.43
2023-04-20T12:03:48.049Z,4.93
2023-04-20T12:06:16.886Z,4.88
2023-04-20T12:08:45.962Z,4.97
2023-04-20T12:11:16.887Z,4.63
2023-04-20T12:13:45.534Z,4.05
2023-04-20T12:16:14.080Z,3.80
2023-04-20T12:18:42.867Z,3.50
2023-04-20T12:21:11.413Z,4.03
2023-04-20T12:23:40.477Z,3.97
2023-04-20T12:26:09.447Z,4.10
2023-04-20T12:28:39.665Z,4.00
2023-04-20T12:31:08.536Z,4.65
2023-04-20T12:33:37.214Z,3.88
2023-04-20T12:36:06.044Z,3.83
2023-04-20T12:38:34.549Z,4.30
2023-04-20T12:41:04.165Z,4.82
2023-04-20T12:43:32.698Z,4.38
2023-04-20T12:46:02.598Z,4.38
2023-04-20T12:48:31.036Z,4.28
2023-04-20T12:51:00.416Z,3.97
2023-04-20T12:53:28.848Z,6.78
2023-04-20T12:56:01.018Z,5.75
2023-04-20T12:58:29.989Z,5.25
2023-04-20T13:00:58.510Z,4.95
2023-04-20T13:03:30.643Z,6.72
2023-04-20T13:05:59.510Z,4.70
2023-04-20T13:08:28.092Z,4.68
2023-04-20T13:10:56.626Z,4.57
2023-04-20T13:13:25.668Z,4.50
2023-04-20T13:15:55.486Z,5.88
2023-04-20T13:18:24.656Z,4.90
2023-04-20T13:20:54.532Z,6.78
2023-04-20T13:23:23.127Z,4.65
2023-04-20T13:25:51.749Z,4.97
2023-04-20T13:28:20.726Z,6.45
2023-04-20T13:30:49.736Z,5.03
2023-04-20T13:33:18.257Z,5.25
2023-04-20T13:35:46.731Z,5.20
2023-04-20T13:38:16.616Z,4.95
2023-04-20T13:40:45.168Z,5.78
2023-04-20T13:43:14.342Z,5.63
2023-04-20T13:45:42.872Z,6.32
2023-04-20T13:48:11.471Z,5.22
2023-04-20T13:50:39.985Z,5.30
2023-04-20T13:53:08.642Z,5.47
2023-04-20T13:55:38.491Z,7.15
2023-04-20T13:58:06.906Z,5.30
2023-04-20T14:00:35.419Z,5.95
2023-04-20T14:03:05.496Z,8.25
2023-04-20T14:05:34.131Z,6.55
2023-04-20T14:08:03.710Z,7.10
2023-04-20T14:10:32.281Z,6.28
2023-04-20T14:13:02.342Z,6.60
2023-04-20T14:15:31.117Z,7.00
2023-04-20T14:18:00.443Z,7.85
2023-04-20T14:20:29.172Z,6.10
2023-04-20T14:22:57.821Z,6.20
2023-04-20T14:25:26.338Z,6.43
2023-04-20T14:27:54.860Z,6.35
2023-04-20T14:30:24.698Z,5.45
2023-04-20T14:32:57.116Z,7.25
2023-04-20T14:35:26.110Z,8.02
2023-04-20T14:37:54.562Z,6.80
2023-04-20T14:40:23.137Z,7.95
2023-04-20T14:42:51.553Z,7.60
2023-04-20T14:45:20.103Z,8.15
2023-04-20T14:47:56.991Z,8.38
2023-04-20T14:50:29.113Z,7.95
2023-04-20T14:52:57.863Z,8.38
2023-04-20T14:55:26.807Z,8.38
2023-04-20T14:57:56.283Z,6.60
2023-04-20T15:00:25.166Z,7.22
2023-04-20T15:02:56.322Z,6.72
2023-04-20T15:05:25.346Z,8.32
2023-04-20T15:07:54.057Z,6.80
2023-04-20T15:10:22.657Z,7.68
2023-04-20T15:12:51.151Z,8.52
2023-04-20T15:15:19.726Z,7.55
2023-04-20T15:17:48.973Z,8.68
2023-04-20T15:20:18.838Z,7.75
2023-04-20T15:22:47.335Z,9.23
2023-04-20T15:25:15.864Z,9.07
2023-04-20T15:27:44.306Z,8.02
2023-04-20T15:30:13.079Z,7.93
2023-04-20T15:32:41.653Z,7.38
2023-04-20T15:35:10.353Z,8.68
2023-04-20T15:37:40.141Z,7.63
2023-04-20T15:40:09.329Z,6.97
2023-04-20T15:42:37.832Z,9.10
2023-04-20T15:45:06.798Z,7.65
2023-04-20T15:47:35.638Z,7.25
2023-04-20T15:50:04.211Z,7.97
2023-04-20T15:52:33.075Z,7.55
2023-04-20T15:55:03.402Z,7.53
2023-04-20T15:57:32.199Z,6.95
2023-04-20T16:00:00.845Z,6.45
2023-04-20T16:02:29.411Z,6.85
2023-04-20T16:04:58.225Z,6.50
2023-04-20T16:07:26.805Z,6.88
2023-04-20T16:09:55.318Z,6.35
2023-04-20T16:12:25.194Z,6.03
2023-04-20T16:14:53.949Z,6.40
2023-04-20T16:17:22.529Z,5.88
2023-04-20T16:19:51.080Z,6.32
2023-04-20T16:22:19.514Z,8.32
2023-04-20T16:24:47.961Z,6.18
2023-04-20T16:27:16.375Z,7.00
2023-04-20T16:29:46.598Z,5.03
2023-04-20T16:32:15.478Z,4.97
2023-04-20T16:34:44.073Z,5.25
2023-04-20T16:37:12.494Z,7.22
2023-04-20T16:39:41.032Z,4.55
2023-04-20T16:42:09.476Z,6.47
2023-04-20T16:44:39.655Z,5.82
2023-04-20T16:47:11.321Z,5.95
2023-04-20T16:49:39.836Z,5.90
2023-04-20T16:52:08.715Z,7.07
2023-04-20T16:54:37.160Z,5.72
2023-04-20T16:57:05.790Z,5.82
2023-04-20T16:59:34.660Z,5.95
2023-04-20T17:02:03.180Z,7.30
2023-04-20T17:04:34.739Z,6.90
2023-04-20T17:07:03.422Z,6.28
2023-04-20T17:09:32.163Z,7.80
2023-04-20T17:12:01.405Z,6.53
2023-04-20T17:14:32.206Z,6.88
2023-04-20T17:17:00.692Z,5.28
2023-04-20T17:19:30.724Z,5.43
2023-04-20T17:22:03.563Z,5.72
2023-04-20T17:24:32.134Z,7.50
2023-04-20T17:27:01.543Z,5.55
2023-04-20T17:29:34.821Z,4.90
2023-04-20T17:32:03.401Z,5.80
2023-04-20T17:34:31.841Z,5.63
2023-04-20T17:37:01.647Z,6.18
2023-04-20T17:39:30.076Z,5.65
2023-04-20T17:41:58.549Z,5.75
2023-04-20T17:44:27.098Z,5.75
2023-04-20T17:46:59.299Z,6.07
2023-04-20T17:49:28.589Z,6.07
2023-04-20T17:51:57.086Z,6.78
2023-04-20T17:54:27.748Z,6.57
2023-04-20T17:56:56.963Z,6.13
2023-04-20T17:59:25.556Z,5.78
2023-04-20T18:01:54.092Z,5.47
2023-04-20T18:04:22.829Z,5.95
2023-04-20T18:06:52.500Z,5.25
2023-04-20T18:09:21.263Z,5.80
2023-04-20T18:11:51.198Z,5.57
2023-04-20T18:14:19.947Z,6.80
2023-04-20T18:16:51.813Z,5.63
2023-04-20T18:19:20.444Z,6.53
2023-04-20T18:21:49.019Z,6.68
2023-04-20T18:24:17.899Z,6.45
2023-04-20T18:26:46.606Z,5.85
2023-04-20T18:29:16.619Z,6.20
2023-04-20T18:31:46.638Z,5.90
2023-04-20T18:34:16.733Z,6.93
2023-04-20T18:36:45.343Z,6.60
2023-04-20T18:39:14.795Z,7.18
2023-04-20T18:41:43.275Z,7.30
2023-04-20T18:44:11.842Z,6.85
2023-04-20T18:46:42.237Z,6.55
2023-04-20T18:49:12.002Z,6.80
2023-04-20T18:51:40.762Z,7.57
2023-04-20T18:54:09.326Z,7.90
2023-04-20T18:56:38.805Z,6.88
2023-04-20T18:59:08.685Z,7.63
2023-04-20T19:01:40.563Z,9.13
2023-04-20T19:04:10.855Z,8.18
2023-04-20T19:06:39.478Z,7.55
2023-04-20T19:09:08.431Z,7.50
2023-04-20T19:11:37.072Z,8.82
2023-04-20T19:14:05.524Z,9.15
2023-04-20T19:16:34.548Z,7.95
2023-04-20T19:19:03.913Z,10.25
2023-04-20T19:21:33.975Z,8.48
2023-04-20T19:24:02.511Z,8.40
2023-04-20T19:26:30.940Z,11.90
2023-04-20T19:29:00.709Z,9.60
2023-04-20T19:31:36.551Z,9.07
2023-04-20T19:34:05.283Z,9.50
2023-04-20T19:39:41.008Z,9.55
2023-04-20T19:42:09.475Z,9.10
2023-04-20T19:44:37.934Z,9.70
2023-04-20T19:47:06.457Z,9.85
2023-04-20T19:49:35.024Z,9.50
2023-04-20T19:52:03.591Z,11.02
2023-04-20T19:54:32.073Z,10.15
2023-04-20T19:57:01.967Z,10.45
2023-04-20T19:59:32.625Z,10.38
2023-04-20T20:02:01.290Z,10.85
2023-04-20T20:04:30.022Z,12.38
2023-04-20T20:06:59.196Z,11.02
2023-04-20T20:09:27.827Z,10.30
2023-04-20T20:11:56.310Z,11.68
2023-04-20T20:14:26.222Z,10.65
2023-04-20T20:16:56.626Z,10.75
2023-04-20T20:19:25.397Z,12.65
2023-04-20T20:21:54.405Z,12.00
2023-04-20T20:24:25.244Z,11.52
2023-04-20T20:26:53.996Z,14.65
2023-04-20T20:29:23.239Z,12.32
2023-04-20T20:31:53.182Z,12.18
2023-04-20T20:34:21.761Z,13.45
2023-04-20T20:36:51.367Z,14.13
2023-04-20T20:39:20.006Z,14.20
2023-04-20T20:41:51.448Z,13.88
2023-04-20T20:44:20.983Z,13.57
2023-04-20T20:46:49.811Z,15.80
2023-04-20T20:49:20.112Z,16.27
2023-04-20T20:51:48.873Z,16.92
2023-04-20T20:54:17.502Z,16.02
2023-04-20T20:56:46.281Z,17.65
2023-04-20T20:59:14.943Z,17.30
2023-04-20T21:01:43.507Z,19.92
2023-04-20T21:04:12.555Z,21.33
2023-04-20T21:06:42.870Z,20.67
2023-04-20T21:09:11.392Z,19.80
2023-04-20T21:11:39.861Z,21.17
2023-04-20T21:14:08.356Z,21.48
2023-04-20T21:16:36.935Z,20.05
2023-04-20T21:19:05.549Z,21.30
2023-04-20T21:21:34.123Z,21.75
2023-04-20T21:24:04.166Z,21.52
2023-04-20T21:26:35.967Z,24.60
2023-04-20T21:29:05.077Z,23.45
2023-04-20T21:31:33.701Z,22.88
2023-04-20T21:34:02.251Z,23.02
2023-04-20T21:36:30.939Z,23.42
2023-04-20T21:38:59.396Z,24.40
2023-04-20T21:41:29.827Z,23.63
2023-04-20T21:43:58.312Z,22.73
2023-04-20T21:46:26.802Z,25.10
2023-04-20T21:48:55.338Z,23.95
2023-04-20T21:51:23.840Z,26.17
2023-04-20T21:53:52.281Z,23.55
2023-04-20T21:56:20.727Z,24.98
2023-04-20T21:58:50.553Z,25.67
2023-04-20T22:01:19.000Z,24.17
2023-04-20T22:03:47.839Z,26.55
2023-04-20T22:06:16.499Z,24.08
2023-04-20T22:08:44.978Z,27.23
2023-04-20T22:11:14.053Z,27.45
2023-04-20T22:13:42.518Z,27.05
2023-04-20T22:16:12.326Z,26.10
2023-04-20T22:18:41.394Z,25.75
2023-04-20T22:21:09.850Z,30.25
2023-04-20T22:23:38.275Z,27.38
2023-04-20T22:26:06.779Z,27.25
2023-04-20T22:28:35.266Z,26.90
2023-04-20T22:31:03.763Z,28.85
2023-04-20T22:33:33.900Z,29.00
2023-04-20T22:36:03.316Z,28.58
2023-04-20T22:38:31.876Z,27.45
2023-04-20T22:41:00.331Z,31.27
2023-04-20T22:43:28.784Z,27.27
2023-04-20T22:45:58.523Z,30.15
2023-04-20T22:48:26.980Z,31.42
2023-04-20T22:51:00.667Z,26.95
2023-04-20T22:53:29.887Z,30.08
2023-04-20T22:56:04.142Z,32.42
2023-04-20T22:58:32.686Z,32.88
2023-04-20T23:01:01.332Z,33.63
2023-04-20T23:03:30.161Z,33.00
2023-04-20T23:06:00.278Z,30.77
2023-04-20T23:08:28.701Z,31.25
2023-04-20T23:10:57.148Z,30.95
2023-04-20T23:13:26.518Z,31.20
2023-04-20T23:15:55.204Z,33.42
2023-04-20T23:18:23.685Z,34.92
2023-04-20T23:20:52.112Z,37.35
2023-04-20T23:23:22.002Z,38.08
2023-04-20T23:25:50.456Z,39.47
2023-04-20T23:28:19.032Z,42.08
2023-04-20T23:30:47.625Z,37.17
2023-04-20T23:33:16.293Z,33.67
2023-04-20T23:35:44.745Z,35.28
2023-04-20T23:38:13.452Z,35.75
2023-04-20T23:40:43.222Z,33.90
2023-04-20T23:43:11.712Z,30.23
2023-04-20T23:45:40.217Z,35.33
2023-04-20T23:48:09.039Z,31.83
2023-04-20T23:50:37.927Z,32.40
2023-04-20T23:53:07.543Z,36.15
2023-04-20T23:55:35.979Z,33.95
2023-04-20T23:58:05.932Z,32.65
